createdAt,value
2019-02-06T00:02:09.404Z,26.70
2019-02-06T00:04:39.175Z,27.43
2019-02-06T00:07:08.368Z,28.00
2019-02-06T00:09:37.347Z,28.60
2019-02-06T00:12:06.376Z,28.57
2019-02-06T00:14:35.722Z,27.40
2019-02-06T00:17:05.103Z,25.17
2019-02-06T00:19:35.546Z,25.43
2019-02-06T00:22:06.002Z,27.23
2019-02-06T00:24:34.856Z,25.97
2019-02-06T00:27:03.752Z,25.70
2019-02-06T00:29:32.746Z,28.30
2019-02-06T00:32:03.947Z,25.87
2019-02-06T00:34:33.480Z,27.53
2019-02-06T00:37:05.612Z,23.10
2019-02-06T00:39:34.452Z,26.17
2019-02-06T00:42:03.809Z,25.57
2019-02-06T00:44:33.026Z,26.20
2019-02-06T00:47:03.305Z,25.20
2019-02-06T00:49:32.297Z,26.00
2019-02-06T00:52:01.383Z,26.80
2019-02-06T00:54:30.730Z,26.10
2019-02-06T00:56:59.600Z,23.37
2019-02-06T00:59:28.391Z,24.37
2019-02-06T01:01:57.358Z,25.60
2019-02-06T01:04:26.591Z,23.93
2019-02-06T01:06:55.983Z,26.53
2019-02-06T01:09:24.867Z,26.00
2019-02-06T01:11:53.791Z,25.37
2019-02-06T01:14:22.534Z,26.40
2019-02-06T01:16:51.780Z,25.27
2019-02-06T01:19:20.743Z,26.50
2019-02-06T01:21:50.938Z,24.17
2019-02-06T01:24:19.839Z,25.10
2019-02-06T01:26:48.612Z,25.13
2019-02-06T01:29:17.477Z,24.60
2019-02-06T01:31:46.896Z,23.93
2019-02-06T01:34:15.909Z,25.47
2019-02-06T01:36:44.740Z,23.20
2019-02-06T01:39:13.689Z,24.93
2019-02-06T01:41:42.576Z,23.97
2019-02-06T01:44:11.546Z,24.23
2019-02-06T01:46:40.585Z,25.63
2019-02-06T01:49:09.762Z,24.57
2019-02-06T01:51:38.790Z,24.77
2019-02-06T01:54:08.129Z,24.97
2019-02-06T01:56:37.565Z,25.00
2019-02-06T01:59:06.630Z,25.60
2019-02-06T02:01:35.732Z,22.43
2019-02-06T02:04:05.179Z,22.40
2019-02-06T02:06:34.302Z,25.37
2019-02-06T02:09:04.479Z,24.80
2019-02-06T02:11:33.517Z,22.10
2019-02-06T02:14:02.544Z,22.77
2019-02-06T02:16:31.344Z,23.93
2019-02-06T02:19:00.306Z,23.57
2019-02-06T02:21:29.238Z,25.60
2019-02-06T02:23:58.238Z,23.40
2019-02-06T02:26:27.301Z,23.40
2019-02-06T02:28:56.173Z,22.70
2019-02-06T02:31:26.361Z,21.77
2019-02-06T02:33:55.237Z,23.23
2019-02-06T02:36:24.962Z,22.90
2019-02-06T02:38:53.933Z,21.13
2019-02-06T02:41:22.838Z,21.17
2019-02-06T02:43:51.644Z,21.40
2019-02-06T02:46:20.616Z,20.37
2019-02-06T02:48:49.438Z,20.83
2019-02-06T02:51:18.356Z,19.47
2019-02-06T02:53:47.436Z,18.13
2019-02-06T02:56:16.480Z,19.27
2019-02-06T02:58:45.640Z,17.87
2019-02-06T03:01:16.020Z,18.60
2019-02-06T03:03:46.502Z,17.70
2019-02-06T03:06:27.191Z,17.23
2019-02-06T03:08:45.963Z,16.23
2019-02-06T03:11:15.127Z,17.50
2019-02-06T03:13:44.154Z,18.43
2019-02-06T03:16:13.126Z,16.10
2019-02-06T03:18:42.158Z,15.00
2019-02-06T03:21:12.000Z,15.87
2019-02-06T03:23:41.556Z,15.77
2019-02-06T03:26:10.565Z,16.43
2019-02-06T03:28:39.338Z,14.40
2019-02-06T03:31:08.285Z,15.50
2019-02-06T03:33:37.237Z,15.57
2019-02-06T03:36:06.587Z,14.77
2019-02-06T03:38:35.467Z,15.90
2019-02-06T03:41:04.961Z,14.67
2019-02-06T03:43:33.832Z,14.00
2019-02-06T03:46:02.779Z,13.83
2019-02-06T03:48:31.781Z,14.20
2019-02-06T03:51:00.851Z,13.57
2019-02-06T03:53:30.747Z,13.50
2019-02-06T03:55:59.661Z,13.03
2019-02-06T03:58:31.126Z,11.43
2019-02-06T04:01:00.865Z,12.10
2019-02-06T04:03:29.931Z,11.20
2019-02-06T04:05:59.272Z,11.27
2019-02-06T04:08:28.157Z,11.13
2019-02-06T04:10:56.987Z,9.70
2019-02-06T04:13:25.834Z,11.40
2019-02-06T04:15:54.919Z,10.53
2019-02-06T04:18:23.680Z,10.00
2019-02-06T04:20:53.321Z,10.50
2019-02-06T04:23:22.442Z,9.10
2019-02-06T04:25:51.463Z,10.10
2019-02-06T04:28:20.496Z,9.63
2019-02-06T04:30:49.528Z,9.10
2019-02-06T04:33:18.360Z,8.67
2019-02-06T04:35:47.492Z,10.03
2019-02-06T04:38:16.648Z,9.90
2019-02-06T04:40:45.614Z,9.27
2019-02-06T04:43:14.498Z,9.17
2019-02-06T04:45:44.059Z,8.93
2019-02-06T04:48:12.871Z,8.90
2019-02-06T04:50:42.457Z,9.03
2019-02-06T04:53:11.509Z,8.97
2019-02-06T04:55:40.361Z,8.73
2019-02-06T04:58:09.242Z,10.03
2019-02-06T05:00:38.700Z,9.27
2019-02-06T05:03:07.848Z,9.03
2019-02-06T05:05:37.003Z,9.87
2019-02-06T05:08:06.234Z,9.47
2019-02-06T05:10:35.011Z,8.83
2019-02-06T05:13:04.112Z,9.37
2019-02-06T05:15:33.540Z,9.00
2019-02-06T05:18:02.437Z,9.97
2019-02-06T05:20:34.085Z,9.83
2019-02-06T05:23:03.148Z,8.77
2019-02-06T05:25:32.650Z,8.40
2019-02-06T05:28:01.918Z,9.07
2019-02-06T05:30:30.956Z,10.47
2019-02-06T05:32:59.907Z,9.03
2019-02-06T05:35:29.009Z,9.17
2019-02-06T05:37:57.898Z,10.07
2019-02-06T05:40:27.152Z,9.63
2019-02-06T05:42:56.205Z,9.67
2019-02-06T05:45:28.081Z,10.57
2019-02-06T05:47:57.103Z,9.60
2019-02-06T05:50:27.082Z,9.87
2019-02-06T05:52:56.097Z,9.50
2019-02-06T05:55:25.584Z,9.93
2019-02-06T05:57:54.784Z,9.30
2019-02-06T06:00:27.454Z,10.23
2019-02-06T06:02:56.534Z,9.93
2019-02-06T06:05:25.895Z,9.87
2019-02-06T06:07:54.899Z,10.23
2019-02-06T06:10:24.215Z,9.10
2019-02-06T06:12:53.270Z,9.27
2019-02-06T06:15:22.835Z,9.87
2019-02-06T06:17:51.760Z,9.90
2019-02-06T06:20:21.264Z,9.50
2019-02-06T06:22:51.177Z,9.37
2019-02-06T06:25:21.155Z,8.70
2019-02-06T06:27:50.641Z,8.30
2019-02-06T06:30:21.321Z,9.33
2019-02-06T06:32:50.276Z,8.20
2019-02-06T06:35:19.888Z,8.80
2019-02-06T06:38:00.820Z,9.37
2019-02-06T06:40:22.398Z,9.53
2019-02-06T06:42:53.692Z,8.70
2019-02-06T06:45:24.621Z,8.90
2019-02-06T06:47:53.833Z,9.90
2019-02-06T06:50:25.007Z,9.77
2019-02-06T06:52:54.175Z,9.60
2019-02-06T06:55:26.069Z,10.07
2019-02-06T06:57:55.143Z,8.93
2019-02-06T07:00:26.465Z,9.07
2019-02-06T07:02:55.421Z,8.90
2019-02-06T07:05:24.675Z,8.43
2019-02-06T07:07:54.259Z,8.60
2019-02-06T07:10:23.505Z,8.70
2019-02-06T07:12:52.657Z,9.83
2019-02-06T07:15:24.290Z,9.33
2019-02-06T07:17:53.455Z,9.80
2019-02-06T07:20:22.727Z,10.37
2019-02-06T07:22:51.673Z,8.73
2019-02-06T07:25:21.038Z,8.87
2019-02-06T07:27:50.110Z,9.07
2019-02-06T07:30:27.848Z,7.80
2019-02-06T07:32:56.958Z,9.40
2019-02-06T07:35:26.644Z,9.30
2019-02-06T07:37:56.306Z,9.00
2019-02-06T07:40:25.715Z,9.77
2019-02-06T07:42:54.699Z,9.93
2019-02-06T07:45:26.460Z,9.00
2019-02-06T07:47:55.431Z,9.13
2019-02-06T07:50:26.861Z,8.97
2019-02-06T07:52:56.323Z,8.10
2019-02-06T07:55:25.450Z,8.70
2019-02-06T07:57:54.629Z,8.83
2019-02-06T08:00:23.728Z,9.37
2019-02-06T08:02:54.331Z,9.27
2019-02-06T08:05:23.480Z,9.57
2019-02-06T08:07:52.681Z,9.53
2019-02-06T08:10:24.691Z,8.40
2019-02-06T08:12:53.774Z,8.80
2019-02-06T08:15:22.671Z,8.70
2019-02-06T08:17:51.763Z,12.20
2019-02-06T08:20:22.195Z,9.60
2019-02-06T08:22:51.845Z,8.67
2019-02-06T08:25:23.095Z,8.30
2019-02-06T08:27:52.235Z,8.90
2019-02-06T08:30:24.049Z,8.90
2019-02-06T08:32:53.501Z,7.80
2019-02-06T08:35:23.208Z,7.23
2019-02-06T08:37:52.940Z,7.97
2019-02-06T08:40:24.418Z,7.37
2019-02-06T08:42:53.714Z,7.80
2019-02-06T08:45:22.912Z,7.70
2019-02-06T08:47:52.328Z,7.37
2019-02-06T08:53:08.439Z,7.87
2019-02-06T08:55:37.230Z,7.73
2019-02-06T08:58:06.469Z,6.80
2019-02-06T09:00:37.651Z,7.40
2019-02-06T09:03:08.843Z,6.87
2019-02-06T09:05:38.159Z,7.07
2019-02-06T09:08:07.625Z,7.30
2019-02-06T09:10:36.799Z,6.80
2019-02-06T09:13:06.258Z,7.10
2019-02-06T09:15:35.038Z,7.30
2019-02-06T09:18:03.920Z,7.90
2019-02-06T09:20:32.805Z,8.13
2019-02-06T09:23:02.679Z,8.07
2019-02-06T09:25:31.649Z,7.47
2019-02-06T09:28:00.443Z,7.23
2019-02-06T09:30:31.616Z,7.90
2019-02-06T09:33:01.131Z,7.73
2019-02-06T09:35:30.208Z,6.90
2019-02-06T09:37:59.211Z,6.57
2019-02-06T09:40:30.176Z,7.10
2019-02-06T09:42:59.121Z,7.97
2019-02-06T09:45:28.083Z,6.73
2019-02-06T09:47:57.067Z,6.43
2019-02-06T09:50:28.902Z,7.17
2019-02-06T09:52:57.792Z,5.90
2019-02-06T09:55:26.646Z,6.77
2019-02-06T09:57:55.563Z,6.50
2019-02-06T10:00:27.210Z,6.70
2019-02-06T10:02:55.995Z,6.97
2019-02-06T10:05:25.122Z,6.10
2019-02-06T10:07:53.942Z,6.30
2019-02-06T10:10:24.689Z,5.90
2019-02-06T10:12:53.604Z,6.87
2019-02-06T10:15:25.144Z,6.13
2019-02-06T10:17:55.113Z,6.57
2019-02-06T10:20:27.197Z,6.83
2019-02-06T10:22:55.931Z,6.13
2019-02-06T10:25:24.857Z,6.03
2019-02-06T10:27:53.668Z,5.50
2019-02-06T10:30:25.527Z,5.97
2019-02-06T10:32:54.372Z,5.30
2019-02-06T10:35:23.145Z,5.40
2019-02-06T10:37:51.982Z,4.50
2019-02-06T10:40:20.957Z,5.47
2019-02-06T10:42:49.719Z,5.70
2019-02-06T10:45:21.010Z,4.83
2019-02-06T10:47:50.916Z,5.77
2019-02-06T10:50:22.542Z,5.77
2019-02-06T10:52:51.319Z,5.00
2019-02-06T10:55:20.167Z,5.70
2019-02-06T10:57:49.027Z,4.80
2019-02-06T11:00:20.606Z,5.77
2019-02-06T11:02:50.476Z,5.00
2019-02-06T11:05:19.564Z,4.97
2019-02-06T11:07:48.517Z,4.70
2019-02-06T11:10:20.611Z,5.30
2019-02-06T11:12:49.434Z,4.90
2019-02-06T11:15:19.767Z,4.97
2019-02-06T11:17:49.260Z,4.73
2019-02-06T11:20:20.747Z,4.40
2019-02-06T11:22:49.572Z,4.97
2019-02-06T11:25:18.526Z,4.50
2019-02-06T11:27:47.270Z,4.70
2019-02-06T11:30:19.393Z,4.30
2019-02-06T11:32:57.551Z,4.17
2019-02-06T11:35:26.248Z,4.67
2019-02-06T11:37:55.114Z,4.50
2019-02-06T11:40:25.720Z,4.60
2019-02-06T11:42:54.940Z,4.10
2019-02-06T11:45:26.490Z,4.10
2019-02-06T11:47:55.304Z,4.67
2019-02-06T11:50:25.953Z,5.47
2019-02-06T11:52:54.697Z,4.73
2019-02-06T11:55:26.582Z,4.40
2019-02-06T11:57:55.693Z,4.57
2019-02-06T12:00:26.913Z,4.77
2019-02-06T12:02:55.657Z,4.37
2019-02-06T12:05:24.366Z,4.23
2019-02-06T12:07:53.148Z,4.47
2019-02-06T12:10:22.768Z,4.50
2019-02-06T12:12:51.566Z,4.40
2019-02-06T12:15:21.238Z,4.83
2019-02-06T12:17:50.074Z,3.83
2019-02-06T12:20:21.441Z,4.73
2019-02-06T12:22:50.534Z,3.63
2019-02-06T12:25:20.068Z,4.37
2019-02-06T12:27:54.010Z,4.53
2019-02-06T12:30:24.696Z,3.63
2019-02-06T12:32:53.897Z,4.17
2019-02-06T12:35:23.257Z,4.60
2019-02-06T12:37:52.024Z,3.70
2019-02-06T12:40:22.088Z,4.07
2019-02-06T12:42:50.986Z,4.10
2019-02-06T12:45:21.985Z,5.50
2019-02-06T12:47:51.278Z,4.53
2019-02-06T12:50:21.754Z,5.93
2019-02-06T12:52:50.558Z,5.80
2019-02-06T12:55:22.092Z,5.07
2019-02-06T12:57:51.390Z,3.70
2019-02-06T13:00:22.897Z,4.33
2019-02-06T13:02:52.210Z,4.40
2019-02-06T13:05:21.264Z,3.90
2019-02-06T13:07:50.502Z,4.40
2019-02-06T13:10:32.935Z,5.03
2019-02-06T13:12:53.497Z,4.40
2019-02-06T13:15:22.461Z,4.93
2019-02-06T13:17:51.579Z,5.23
2019-02-06T13:20:22.915Z,4.77
2019-02-06T13:22:51.874Z,4.70
2019-02-06T13:25:22.100Z,5.23
2019-02-06T13:27:51.051Z,5.10
2019-02-06T13:30:22.681Z,4.50
2019-02-06T13:32:52.041Z,5.20
2019-02-06T13:35:21.100Z,5.23
2019-02-06T13:37:50.127Z,4.40
2019-02-06T13:40:21.142Z,5.37
2019-02-06T13:42:50.003Z,4.40
2019-02-06T13:45:21.607Z,4.93
2019-02-06T13:47:50.379Z,5.57
2019-02-06T13:50:22.336Z,4.57
2019-02-06T13:52:51.704Z,5.33
2019-02-06T13:55:20.537Z,4.83
2019-02-06T13:57:49.331Z,5.17
2019-02-06T14:00:20.954Z,5.40
2019-02-06T14:02:50.587Z,4.53
2019-02-06T14:05:22.378Z,5.13
2019-02-06T14:07:51.720Z,4.83
2019-02-06T14:10:23.317Z,4.90
2019-02-06T14:12:52.304Z,5.90
2019-02-06T14:15:24.284Z,4.60
2019-02-06T14:17:53.214Z,4.20
2019-02-06T14:20:23.479Z,3.87
2019-02-06T14:22:55.087Z,5.33
2019-02-06T14:25:26.707Z,4.50
2019-02-06T14:27:58.293Z,5.20
2019-02-06T14:30:30.124Z,5.50
2019-02-06T14:33:01.717Z,5.03
2019-02-06T14:35:33.238Z,4.90
2019-02-06T14:38:04.783Z,4.63
2019-02-06T14:40:36.788Z,4.93
2019-02-06T14:43:08.436Z,4.50
2019-02-06T14:45:38.424Z,3.70
2019-02-06T14:48:09.944Z,4.27
2019-02-06T14:50:41.602Z,4.33
2019-02-06T14:53:13.358Z,5.43
2019-02-06T14:55:44.895Z,4.03
2019-02-06T14:58:14.804Z,4.17
2019-02-06T15:00:44.949Z,4.53
2019-02-06T15:03:16.728Z,5.20
2019-02-06T15:05:48.488Z,4.83
2019-02-06T15:08:20.062Z,5.00
2019-02-06T15:10:51.639Z,5.70
2019-02-06T15:13:23.184Z,5.30
2019-02-06T15:15:54.266Z,5.30
2019-02-06T15:18:27.171Z,4.70
2019-02-06T15:20:59.188Z,4.37
2019-02-06T15:23:32.901Z,4.80
2019-02-06T15:26:02.617Z,4.90
2019-02-06T15:28:32.559Z,5.20
2019-02-06T15:31:04.497Z,4.90
2019-02-06T15:33:34.489Z,4.43
2019-02-06T15:36:06.597Z,5.00
2019-02-06T15:38:38.104Z,4.80
2019-02-06T15:41:09.715Z,5.07
2019-02-06T15:43:40.264Z,4.60
2019-02-06T15:46:08.688Z,4.63
2019-02-06T15:48:40.331Z,4.80
2019-02-06T15:51:11.877Z,6.07
2019-02-06T15:53:43.426Z,5.50
2019-02-06T15:56:15.091Z,5.13
2019-02-06T15:58:44.997Z,6.00
2019-02-06T16:01:16.574Z,4.70
2019-02-06T16:03:49.082Z,5.87
2019-02-06T16:06:23.418Z,5.30
2019-02-06T16:08:55.589Z,5.47
2019-02-06T16:11:27.178Z,5.50
2019-02-06T16:13:58.894Z,5.03
2019-02-06T16:16:28.259Z,5.60
2019-02-06T16:18:59.949Z,5.47
2019-02-06T16:21:31.832Z,6.40
2019-02-06T16:24:03.491Z,6.07
2019-02-06T16:26:35.192Z,5.47
2019-02-06T16:29:06.757Z,5.30
2019-02-06T16:31:37.878Z,5.67
2019-02-06T16:34:09.878Z,5.83
2019-02-06T16:36:41.485Z,6.00
2019-02-06T16:39:13.196Z,6.10
2019-02-06T16:41:53.076Z,6.27
2019-02-06T16:44:18.191Z,5.30
2019-02-06T16:46:50.028Z,6.33
2019-02-06T16:49:21.688Z,5.77
2019-02-06T16:51:53.261Z,6.00
2019-02-06T16:54:24.963Z,6.57
2019-02-06T16:56:56.560Z,5.53
2019-02-06T16:59:27.571Z,6.43
2019-02-06T17:01:59.248Z,6.10
2019-02-06T17:04:30.768Z,6.10
2019-02-06T17:07:02.415Z,6.20
2019-02-06T17:09:33.234Z,6.83
2019-02-06T17:12:04.900Z,6.40
2019-02-06T17:14:35.378Z,6.97
2019-02-06T17:17:07.014Z,6.60
2019-02-06T17:19:38.700Z,6.23
2019-02-06T17:22:10.265Z,7.00
2019-02-06T17:24:41.956Z,7.20
2019-02-06T17:27:13.473Z,7.07
2019-02-06T17:29:45.062Z,7.30
2019-02-06T17:32:16.663Z,8.70
2019-02-06T17:34:48.441Z,8.07
2019-02-06T17:37:18.433Z,8.30
2019-02-06T17:39:50.039Z,7.60
2019-02-06T17:42:20.061Z,7.67
2019-02-06T17:44:51.779Z,7.33
2019-02-06T17:47:22.911Z,7.57
2019-02-06T17:49:54.554Z,6.80
2019-02-06T17:52:25.661Z,8.80
2019-02-06T17:54:59.504Z,8.77
2019-02-06T17:57:27.488Z,9.53
2019-02-06T17:59:56.624Z,8.27
2019-02-06T18:02:25.593Z,8.37
2019-02-06T18:04:54.524Z,9.37
2019-02-06T18:07:23.409Z,9.40
2019-02-06T18:09:52.340Z,10.50
2019-02-06T18:12:26.581Z,9.53
2019-02-06T18:14:52.097Z,9.57
2019-02-06T18:17:21.024Z,9.90
2019-02-06T18:19:49.941Z,9.43
2019-02-06T18:22:18.719Z,9.37
2019-02-06T18:24:47.491Z,10.87
2019-02-06T18:27:16.283Z,10.10
2019-02-06T18:29:45.014Z,11.23
2019-02-06T18:32:13.898Z,9.67
2019-02-06T18:34:42.784Z,10.73
2019-02-06T18:37:12.664Z,9.77
2019-02-06T18:39:41.423Z,8.83
2019-02-06T18:42:10.620Z,7.33
2019-02-06T18:44:39.475Z,6.80
2019-02-06T18:47:08.270Z,8.20
2019-02-06T18:49:37.138Z,6.40
2019-02-06T18:52:07.051Z,6.73
2019-02-06T18:54:35.898Z,5.80
2019-02-06T18:57:05.462Z,5.70
2019-02-06T18:59:34.448Z,6.13
2019-02-06T19:02:03.332Z,5.67
2019-02-06T19:04:33.574Z,6.40
2019-02-06T19:07:07.502Z,5.63
2019-02-06T19:09:36.404Z,5.40
2019-02-06T19:12:05.843Z,6.70
2019-02-06T19:14:34.670Z,5.47
2019-02-06T19:17:03.701Z,6.23
2019-02-06T19:19:32.611Z,5.30
2019-02-06T19:22:01.401Z,6.43
2019-02-06T19:24:30.250Z,5.77
2019-02-06T19:26:58.996Z,6.33
2019-02-06T19:29:27.989Z,6.93
2019-02-06T19:31:58.556Z,5.80
2019-02-06T19:34:27.351Z,5.33
2019-02-06T19:36:56.248Z,5.00
2019-02-06T19:39:24.989Z,4.57
2019-02-06T19:41:53.946Z,4.90
2019-02-06T19:44:22.804Z,5.50
2019-02-06T19:46:51.654Z,5.60
2019-02-06T19:49:23.247Z,5.30
2019-02-06T19:51:51.505Z,6.00
2019-02-06T19:54:20.345Z,4.87
2019-02-06T19:56:49.249Z,5.03
2019-02-06T19:59:18.749Z,5.17
2019-02-06T20:01:47.540Z,5.83
2019-02-06T20:04:16.927Z,4.50
2019-02-06T20:06:47.096Z,5.10
2019-02-06T20:09:16.494Z,4.70
2019-02-06T20:11:45.369Z,4.67
2019-02-06T20:14:14.173Z,5.50
2019-02-06T20:16:43.012Z,5.83
2019-02-06T20:19:12.693Z,5.90
2019-02-06T20:21:44.651Z,5.70
2019-02-06T20:24:13.676Z,5.50
2019-02-06T20:26:42.503Z,5.53
2019-02-06T20:29:11.337Z,5.77
2019-02-06T20:31:40.275Z,5.23
2019-02-06T20:34:09.196Z,4.57
2019-02-06T20:36:38.056Z,6.27
2019-02-06T20:39:07.918Z,5.07
2019-02-06T20:41:36.792Z,5.40
2019-02-06T20:44:05.824Z,6.30
2019-02-06T20:46:35.377Z,6.07
2019-02-06T20:49:04.375Z,6.17
2019-02-06T20:51:33.246Z,6.20
2019-02-06T20:54:04.096Z,6.87
2019-02-06T20:56:32.906Z,7.73
2019-02-06T20:59:04.313Z,6.10
2019-02-06T21:01:33.199Z,5.13
2019-02-06T21:04:02.122Z,6.73
2019-02-06T21:06:31.180Z,5.20
2019-02-06T21:09:00.142Z,5.43
2019-02-06T21:11:29.463Z,5.43
2019-02-06T21:13:58.603Z,4.90
2019-02-06T21:16:29.151Z,5.00
2019-02-06T21:18:58.551Z,6.23
2019-02-06T21:21:27.446Z,8.50
2019-02-06T21:23:56.235Z,7.30
2019-02-06T21:26:28.323Z,6.67
2019-02-06T21:29:01.337Z,6.80
2019-02-06T21:31:34.495Z,6.33
2019-02-06T21:34:05.820Z,6.70
2019-02-06T21:36:33.769Z,6.30
2019-02-06T21:39:02.576Z,5.43
2019-02-06T21:41:32.043Z,5.97
2019-02-06T21:44:03.791Z,5.97
2019-02-06T21:46:32.566Z,6.23
2019-02-06T21:49:01.411Z,6.20
2019-02-06T21:51:31.320Z,6.80
2019-02-06T21:54:00.099Z,6.00
2019-02-06T21:56:28.945Z,6.73
2019-02-06T21:58:57.634Z,6.70
2019-02-06T22:01:27.294Z,5.90
2019-02-06T22:03:56.461Z,6.00
2019-02-06T22:06:25.368Z,6.77
2019-02-06T22:08:54.338Z,6.23
2019-02-06T22:11:23.084Z,6.50
2019-02-06T22:13:55.291Z,6.90
2019-02-06T22:16:22.237Z,6.60
2019-02-06T22:18:51.080Z,6.33
2019-02-06T22:21:19.927Z,7.00
2019-02-06T22:23:48.681Z,7.03
2019-02-06T22:26:17.493Z,7.20
2019-02-06T22:28:46.341Z,7.00
2019-02-06T22:31:15.417Z,7.00
2019-02-06T22:33:44.204Z,7.43
2019-02-06T22:36:13.061Z,6.60
2019-02-06T22:38:41.849Z,7.73
2019-02-06T22:41:11.184Z,7.47
2019-02-06T22:43:40.139Z,7.00
2019-02-06T22:46:09.039Z,7.50
2019-02-06T22:48:38.271Z,7.30
2019-02-06T22:51:07.176Z,7.03
2019-02-06T22:53:36.028Z,7.90
2019-02-06T22:56:05.229Z,7.13
2019-02-06T22:58:34.124Z,7.40
2019-02-06T23:01:05.657Z,6.90
2019-02-06T23:03:36.563Z,6.10
2019-02-06T23:06:06.382Z,7.40
2019-02-06T23:08:35.275Z,8.37
2019-02-06T23:11:04.490Z,7.00
2019-02-06T23:13:33.402Z,7.07
2019-02-06T23:16:02.214Z,6.60
2019-02-06T23:18:31.045Z,7.80
2019-02-06T23:20:59.833Z,6.90
2019-02-06T23:23:28.599Z,5.63
2019-02-06T23:25:57.487Z,7.07
2019-02-06T23:28:26.307Z,6.90
2019-02-06T23:30:56.675Z,7.60
2019-02-06T23:33:25.512Z,6.60
2019-02-06T23:35:54.289Z,8.00
2019-02-06T23:38:23.138Z,7.33
2019-02-06T23:40:51.870Z,7.90
2019-02-06T23:43:20.604Z,7.60
2019-02-06T23:45:49.348Z,7.70
2019-02-06T23:48:18.160Z,7.70
2019-02-06T23:50:46.895Z,7.20
2019-02-06T23:53:15.680Z,7.20
2019-02-06T23:55:44.749Z,6.30
2019-02-06T23:58:13.515Z,6.40
